createdAt,value
2022-11-20T00:01:35.209Z,-5.50
2022-11-20T00:04:04.192Z,-5.30
2022-11-20T00:06:32.793Z,-5.20
2022-11-20T00:09:02.699Z,-5.30
2022-11-20T00:11:32.601Z,-5.20
2022-11-20T00:14:03.346Z,-5.30
2022-11-20T00:16:34.134Z,-5.30
2022-11-20T00:19:02.679Z,-5.20
2022-11-20T00:21:31.889Z,-5.30
2022-11-20T00:24:01.006Z,-5.40
2022-11-20T00:26:31.148Z,-5.50
2022-11-20T00:29:02.059Z,-5.50
2022-11-20T00:31:31.536Z,-5.70
2022-11-20T00:34:00.106Z,-5.70
2022-11-20T00:36:30.912Z,-5.50
2022-11-20T00:39:00.501Z,-5.20
2022-11-20T00:41:30.781Z,-4.80
2022-11-20T00:43:59.348Z,-4.60
2022-11-20T00:46:29.422Z,-4.30
2022-11-20T00:48:58.335Z,-4.10
2022-11-20T00:51:28.720Z,-4.00
2022-11-20T00:54:00.744Z,-4.00
2022-11-20T00:56:29.812Z,-3.80
2022-11-20T00:59:01.794Z,-3.80
2022-11-20T01:01:30.602Z,-3.70
2022-11-20T01:04:01.614Z,-3.60
2022-11-20T01:06:35.794Z,-3.50
2022-11-20T01:09:10.211Z,-3.40
2022-11-20T01:11:41.092Z,-3.40
2022-11-20T01:14:12.360Z,-3.30
2022-11-20T01:16:43.468Z,-3.20
2022-11-20T01:19:17.744Z,-3.20
2022-11-20T01:21:46.556Z,-3.10
2022-11-20T01:24:18.096Z,-3.00
2022-11-20T01:26:49.287Z,-3.10
2022-11-20T01:29:21.297Z,-2.90
2022-11-20T01:31:50.721Z,-2.80
2022-11-20T01:34:21.111Z,-2.70
2022-11-20T01:36:51.436Z,-2.70
2022-11-20T01:39:23.180Z,-2.60
2022-11-20T01:42:11.280Z,-2.60
2022-11-20T01:44:55.304Z,-2.60
2022-11-20T01:47:32.401Z,-2.50
2022-11-20T01:50:06.419Z,-2.50
2022-11-20T01:52:38.364Z,-2.40
2022-11-20T01:55:09.959Z,-2.40
2022-11-20T01:57:40.547Z,-2.40
2022-11-20T02:00:12.440Z,-2.40
2022-11-20T02:02:43.335Z,-2.40
2022-11-20T02:05:19.200Z,-2.40
2022-11-20T02:07:49.087Z,-2.30
2022-11-20T02:10:17.961Z,-2.30
2022-11-20T02:13:04.604Z,-2.30
2022-11-20T02:15:35.244Z,-2.20
2022-11-20T02:18:04.180Z,-2.10
2022-11-20T02:20:32.785Z,-2.20
2022-11-20T02:23:28.183Z,-2.10
2022-11-20T02:25:59.167Z,-2.10
2022-11-20T02:28:27.905Z,-2.10
2022-11-20T02:30:56.439Z,-2.00
2022-11-20T02:33:24.926Z,-2.00
2022-11-20T02:35:53.436Z,-2.00
2022-11-20T02:38:22.338Z,-1.90
2022-11-20T02:40:55.307Z,-1.80
2022-11-20T02:43:20.980Z,-1.80
2022-11-20T02:45:49.491Z,-1.80
2022-11-20T02:48:18.084Z,-1.80
2022-11-20T02:50:46.604Z,-1.80
2022-11-20T02:53:15.112Z,-1.80
2022-11-20T02:55:43.573Z,-1.80
2022-11-20T02:58:12.274Z,-1.80
2022-11-20T03:00:40.741Z,-1.70
2022-11-20T03:03:09.281Z,-1.70
2022-11-20T03:05:37.798Z,-1.60
2022-11-20T03:08:06.414Z,-1.60
2022-11-20T03:10:34.881Z,-1.60
2022-11-20T03:13:03.401Z,-1.60
2022-11-20T03:15:31.871Z,-1.70
2022-11-20T03:18:00.394Z,-1.60
2022-11-20T03:20:28.960Z,-1.70
2022-11-20T03:22:57.466Z,-1.60
2022-11-20T03:25:26.004Z,-1.60
2022-11-20T03:27:55.137Z,-1.50
2022-11-20T03:30:30.600Z,-1.50
2022-11-20T03:32:57.035Z,-1.50
2022-11-20T03:35:25.479Z,-1.50
2022-11-20T03:37:53.949Z,-1.50
2022-11-20T03:40:22.531Z,-1.50
2022-11-20T03:42:51.082Z,-1.40
2022-11-20T03:45:21.311Z,-1.40
2022-11-20T03:47:49.889Z,-1.40
2022-11-20T03:50:18.680Z,-1.40
2022-11-20T03:52:47.380Z,-1.40
2022-11-20T03:55:15.912Z,-1.40
2022-11-20T03:57:44.509Z,-1.40
2022-11-20T04:00:14.228Z,-1.30
2022-11-20T04:02:42.702Z,-1.20
2022-11-20T04:05:11.280Z,-1.10
2022-11-20T04:07:39.864Z,-1.20
2022-11-20T04:10:08.893Z,-1.30
2022-11-20T04:12:37.420Z,-1.20
2022-11-20T04:15:06.304Z,-1.20
2022-11-20T04:17:34.848Z,-1.20
2022-11-20T04:20:04.312Z,-0.90
2022-11-20T04:22:32.861Z,-0.80
2022-11-20T04:25:01.331Z,-0.90
2022-11-20T04:27:29.879Z,-1.00
2022-11-20T04:29:58.387Z,-1.00
2022-11-20T04:32:26.851Z,-0.90
2022-11-20T04:34:55.289Z,-0.90
2022-11-20T04:37:23.744Z,-0.90
2022-11-20T04:39:52.238Z,-0.90
2022-11-20T04:42:29.623Z,-0.90
2022-11-20T04:44:58.454Z,-0.90
2022-11-20T04:47:26.960Z,-0.80
2022-11-20T04:49:55.555Z,-0.80
2022-11-20T04:52:24.125Z,-0.90
2022-11-20T04:54:54.196Z,-0.80
2022-11-20T04:57:22.890Z,-0.70
2022-11-20T04:59:51.491Z,-0.60
2022-11-20T05:02:20.153Z,-0.60
2022-11-20T05:04:48.847Z,-0.70
2022-11-20T05:07:17.485Z,-0.70
2022-11-20T05:09:46.710Z,-0.70
2022-11-20T05:12:15.287Z,-0.80
2022-11-20T05:14:43.807Z,-0.80
2022-11-20T05:17:13.570Z,-0.80
2022-11-20T05:19:42.038Z,-0.80
2022-11-20T05:22:10.495Z,-0.80
2022-11-20T05:24:38.938Z,-0.70
2022-11-20T05:27:07.411Z,-0.70
2022-11-20T05:29:35.880Z,-0.80
2022-11-20T05:32:04.440Z,-0.90
2022-11-20T05:34:33.917Z,-0.90
2022-11-20T05:37:02.674Z,-0.90
2022-11-20T05:39:31.589Z,-1.00
2022-11-20T05:42:17.803Z,-1.10
2022-11-20T05:44:46.324Z,-1.10
2022-11-20T05:47:14.799Z,-1.10
2022-11-20T05:49:43.359Z,-1.30
2022-11-20T05:52:11.940Z,-1.40
2022-11-20T05:54:40.431Z,-1.50
2022-11-20T05:57:08.948Z,-1.60
2022-11-20T05:59:37.413Z,-1.60
2022-11-20T06:02:05.885Z,-1.50
2022-11-20T06:04:34.420Z,-1.60
2022-11-20T06:07:02.925Z,-1.70
2022-11-20T06:09:31.395Z,-1.70
2022-11-20T06:12:00.070Z,-1.80
2022-11-20T06:14:28.661Z,-1.90
2022-11-20T06:16:57.260Z,-1.90
2022-11-20T06:19:25.712Z,-1.90
2022-11-20T06:21:54.178Z,-2.10
2022-11-20T06:24:23.240Z,-2.20
2022-11-20T06:26:51.718Z,-2.20
2022-11-20T06:29:20.720Z,-2.30
2022-11-20T06:31:49.547Z,-2.20
2022-11-20T06:34:18.148Z,-2.30
2022-11-20T06:36:48.019Z,-2.40
2022-11-20T06:39:16.675Z,-2.40
2022-11-20T06:41:45.218Z,-2.50
2022-11-20T06:44:13.843Z,-2.50
2022-11-20T06:46:42.324Z,-2.60
2022-11-20T06:49:10.883Z,-2.70
2022-11-20T06:51:39.424Z,-2.70
2022-11-20T06:54:08.476Z,-2.60
2022-11-20T06:56:36.973Z,-2.50
2022-11-20T06:59:09.157Z,-2.40
2022-11-20T07:01:37.955Z,-2.50
2022-11-20T07:04:06.559Z,-2.50
2022-11-20T07:06:35.173Z,-2.60
2022-11-20T07:09:05.462Z,-2.50
2022-11-20T07:11:34.161Z,-2.50
2022-11-20T07:14:02.761Z,-2.40
2022-11-20T07:16:31.277Z,-2.40
2022-11-20T07:18:59.821Z,-2.50
2022-11-20T07:21:28.400Z,-2.40
2022-11-20T07:23:56.840Z,-2.50
2022-11-20T07:26:25.295Z,-2.60
2022-11-20T07:28:53.767Z,-2.70
2022-11-20T07:31:22.544Z,-2.60
2022-11-20T07:33:51.148Z,-2.60
2022-11-20T07:36:19.644Z,-2.70
2022-11-20T07:38:48.120Z,-2.60
2022-11-20T07:41:17.122Z,-2.60
2022-11-20T07:43:45.664Z,-2.50
2022-11-20T07:46:14.205Z,-2.60
2022-11-20T07:48:42.678Z,-2.50
2022-11-20T07:51:11.165Z,-2.50
2022-11-20T07:53:39.718Z,-2.40
2022-11-20T07:56:08.564Z,-2.50
2022-11-20T07:58:37.384Z,-2.40
2022-11-20T08:01:08.404Z,-2.40
2022-11-20T08:03:39.135Z,-2.40
2022-11-20T08:06:08.523Z,-2.20
2022-11-20T08:08:42.427Z,-2.10
2022-11-20T08:11:25.481Z,-1.80
2022-11-20T08:14:11.760Z,-1.30
2022-11-20T08:16:42.542Z,-0.70
2022-11-20T08:19:11.377Z,-0.20
2022-11-20T08:21:40.019Z,0.30
2022-11-20T08:24:09.684Z,0.90
2022-11-20T08:26:40.161Z,1.20
2022-11-20T08:29:08.942Z,1.50
2022-11-20T08:31:37.612Z,2.30
2022-11-20T08:34:08.915Z,2.50
2022-11-20T08:36:37.410Z,3.40
2022-11-20T08:39:06.280Z,3.60
2022-11-20T08:41:34.927Z,3.60
2022-11-20T08:44:05.464Z,3.50
2022-11-20T08:46:38.236Z,4.10
2022-11-20T08:49:07.966Z,4.10
2022-11-20T08:51:37.064Z,4.10
2022-11-20T08:54:06.270Z,5.00
2022-11-20T08:56:35.554Z,4.50
2022-11-20T09:01:34.304Z,5.70
2022-11-20T09:04:05.450Z,4.80
2022-11-20T09:06:33.971Z,4.30
2022-11-20T09:09:06.639Z,4.30
2022-11-20T09:11:32.847Z,4.00
2022-11-20T09:14:03.073Z,4.50
2022-11-20T09:16:31.579Z,4.90
2022-11-20T09:19:33.661Z,5.80
2022-11-20T09:21:30.320Z,6.10
2022-11-20T09:23:58.769Z,6.30
2022-11-20T09:26:27.279Z,6.80
2022-11-20T09:28:58.131Z,8.40
2022-11-20T09:31:27.516Z,9.10
2022-11-20T09:33:56.407Z,8.30
2022-11-20T09:36:25.041Z,8.70
2022-11-20T09:38:54.711Z,8.70
2022-11-20T09:41:35.234Z,9.00
2022-11-20T09:44:06.740Z,9.90
2022-11-20T09:46:53.378Z,9.90
2022-11-20T09:49:32.187Z,11.70
2022-11-20T09:52:23.216Z,11.30
2022-11-20T09:54:53.917Z,10.60
2022-11-20T09:57:25.414Z,11.40
2022-11-20T09:59:59.657Z,11.20
2022-11-20T10:02:31.158Z,12.60
2022-11-20T10:05:05.594Z,12.20
2022-11-20T10:07:46.057Z,12.90
2022-11-20T10:10:19.999Z,13.30
2022-11-20T10:13:19.795Z,11.60
2022-11-20T10:16:12.102Z,10.30
2022-11-20T10:19:00.155Z,10.80
2022-11-20T10:21:43.559Z,12.10
2022-11-20T10:24:40.818Z,11.70
2022-11-20T10:27:18.131Z,11.10
2022-11-20T10:29:49.684Z,11.00
2022-11-20T10:32:21.208Z,11.70
2022-11-20T10:35:01.451Z,10.60
2022-11-20T10:37:32.950Z,12.10
2022-11-20T10:40:10.400Z,11.70
2022-11-20T10:42:52.204Z,11.50
2022-11-20T10:45:29.581Z,12.30
2022-11-20T10:48:15.883Z,12.50
2022-11-20T10:51:20.738Z,12.50
2022-11-20T10:54:07.104Z,12.70
2022-11-20T10:56:50.620Z,12.30
2022-11-20T10:59:38.709Z,14.20
2022-11-20T11:02:24.552Z,14.10
2022-11-20T11:04:54.720Z,12.80
2022-11-20T11:07:38.076Z,11.30
2022-11-20T11:10:09.635Z,11.80
2022-11-20T11:12:38.495Z,13.00
2022-11-20T11:15:07.496Z,12.00
2022-11-20T11:17:36.303Z,12.30
2022-11-20T11:20:10.569Z,12.80
2022-11-20T11:22:48.541Z,9.40
2022-11-20T11:25:25.694Z,9.40
2022-11-20T11:27:57.114Z,8.50
2022-11-20T11:30:27.628Z,8.20
2022-11-20T11:33:13.748Z,7.30
2022-11-20T11:35:52.923Z,6.60
2022-11-20T11:38:33.131Z,7.20
2022-11-20T11:41:02.436Z,6.80
2022-11-20T11:43:51.824Z,6.10
2022-11-20T11:46:35.266Z,5.60
2022-11-20T11:49:06.821Z,5.50
2022-11-20T11:51:54.022Z,5.40
2022-11-20T11:54:40.553Z,5.30
2022-11-20T11:57:24.248Z,5.10
2022-11-20T12:00:17.340Z,5.30
2022-11-20T12:02:51.842Z,5.50
2022-11-20T12:05:35.289Z,5.00
2022-11-20T12:08:23.782Z,5.00
2022-11-20T12:11:07.189Z,5.10
2022-11-20T12:14:01.228Z,4.80
2022-11-20T12:16:32.885Z,5.20
2022-11-20T12:19:01.337Z,5.40
2022-11-20T12:22:05.958Z,5.30
2022-11-20T12:24:37.487Z,5.60
2022-11-20T12:27:23.999Z,5.40
2022-11-20T12:30:04.372Z,5.60
2022-11-20T12:32:45.148Z,5.10
2022-11-20T12:35:48.225Z,5.40
2022-11-20T12:38:22.656Z,5.60
2022-11-20T12:41:06.278Z,5.90
2022-11-20T12:44:10.599Z,6.70
2022-11-20T12:46:44.992Z,7.00
2022-11-20T12:49:25.615Z,6.90
2022-11-20T12:52:05.755Z,8.10
2022-11-20T12:54:43.833Z,7.70
2022-11-20T12:57:41.773Z,8.00
2022-11-20T13:00:21.879Z,8.30
2022-11-20T13:03:15.960Z,7.60
2022-11-20T13:05:59.454Z,7.00
2022-11-20T13:08:31.118Z,6.30
2022-11-20T13:11:08.098Z,6.20
2022-11-20T13:13:48.686Z,6.30
2022-11-20T13:16:23.085Z,6.10
2022-11-20T13:18:51.775Z,6.10
2022-11-20T13:21:26.656Z,5.90
2022-11-20T13:23:58.232Z,5.80
2022-11-20T13:26:27.019Z,5.60
2022-11-20T13:29:13.734Z,5.30
2022-11-20T13:31:45.289Z,5.40
2022-11-20T13:34:28.233Z,5.20
2022-11-20T13:37:01.009Z,5.00
2022-11-20T13:39:35.327Z,5.00
2022-11-20T13:42:18.791Z,4.80
2022-11-20T13:44:50.342Z,4.40
2022-11-20T13:47:29.752Z,4.10
2022-11-20T13:50:00.662Z,3.90
2022-11-20T13:52:51.617Z,3.90
2022-11-20T13:55:40.983Z,3.90
2022-11-20T13:58:33.458Z,3.70
2022-11-20T14:01:26.262Z,3.80
2022-11-20T14:04:10.881Z,3.70
2022-11-20T14:06:46.638Z,3.90
2022-11-20T14:09:32.633Z,3.80
2022-11-20T14:12:01.731Z,3.90
2022-11-20T14:14:31.874Z,3.90
2022-11-20T14:17:12.289Z,3.80
2022-11-20T14:19:43.109Z,3.70
2022-11-20T14:22:25.738Z,3.60
2022-11-20T14:25:15.443Z,3.60
2022-11-20T14:27:46.367Z,3.60
2022-11-20T14:30:17.643Z,3.60
2022-11-20T14:32:48.059Z,3.80
2022-11-20T14:35:28.695Z,3.60
2022-11-20T14:37:58.493Z,3.50
2022-11-20T14:40:37.015Z,3.50
2022-11-20T14:43:20.558Z,3.40
2022-11-20T14:45:53.373Z,3.40
2022-11-20T14:48:25.106Z,3.60
2022-11-20T14:50:53.696Z,3.50
2022-11-20T14:53:26.583Z,3.40
2022-11-20T14:56:03.373Z,3.40
2022-11-20T14:58:34.406Z,3.50
2022-11-20T15:01:05.372Z,3.30
2022-11-20T15:03:36.459Z,3.30
2022-11-20T15:06:06.636Z,3.40
2022-11-20T15:08:36.364Z,3.20
2022-11-20T15:11:05.344Z,3.20
2022-11-20T15:13:36.273Z,3.30
2022-11-20T15:16:06.230Z,3.20
2022-11-20T15:18:39.987Z,3.10
2022-11-20T15:21:16.824Z,3.10
2022-11-20T15:23:45.967Z,3.10
2022-11-20T15:26:20.013Z,3.10
2022-11-20T15:28:50.849Z,3.10
2022-11-20T15:31:22.173Z,3.10
2022-11-20T15:33:51.548Z,3.10
2022-11-20T15:36:19.997Z,3.10
2022-11-20T15:38:48.599Z,3.10
2022-11-20T15:41:17.113Z,3.10
2022-11-20T15:43:47.370Z,3.00
2022-11-20T15:46:18.248Z,2.90
2022-11-20T15:48:49.653Z,2.80
2022-11-20T15:51:33.046Z,2.70
2022-11-20T15:54:01.775Z,2.70
2022-11-20T15:56:30.339Z,2.70
2022-11-20T15:58:58.904Z,2.70
2022-11-20T16:01:27.520Z,2.70
2022-11-20T16:03:56.088Z,2.70
2022-11-20T16:06:24.683Z,2.70
2022-11-20T16:08:53.406Z,2.80
2022-11-20T16:11:21.941Z,2.80
2022-11-20T16:14:08.510Z,2.80
2022-11-20T16:16:38.551Z,2.80
2022-11-20T16:19:07.173Z,2.70
2022-11-20T16:21:35.795Z,2.80
2022-11-20T16:24:06.436Z,2.70
2022-11-20T16:26:35.557Z,2.70
2022-11-20T16:29:06.542Z,2.70
2022-11-20T16:31:35.636Z,2.70
2022-11-20T16:34:11.915Z,2.70
2022-11-20T16:36:37.630Z,2.70
2022-11-20T16:39:06.159Z,2.60
2022-11-20T16:41:35.924Z,2.60
2022-11-20T16:44:10.646Z,2.50
2022-11-20T16:46:40.802Z,2.60
2022-11-20T16:49:14.326Z,2.70
2022-11-20T16:51:42.993Z,2.70
2022-11-20T16:54:15.186Z,2.70
2022-11-20T16:56:42.854Z,2.70
2022-11-20T16:59:11.598Z,2.70
2022-11-20T17:01:41.635Z,2.70
2022-11-20T17:04:10.306Z,2.70
2022-11-20T17:06:41.782Z,2.70
2022-11-20T17:09:10.683Z,2.60
2022-11-20T17:11:39.671Z,2.60
2022-11-20T17:14:08.325Z,2.60
2022-11-20T17:16:38.048Z,2.70
2022-11-20T17:19:07.015Z,2.60
2022-11-20T17:21:36.488Z,2.60
2022-11-20T17:24:07.639Z,2.60
2022-11-20T17:26:37.110Z,2.60
2022-11-20T17:29:09.559Z,2.60
2022-11-20T17:31:39.376Z,2.60
2022-11-20T17:34:10.911Z,2.70
2022-11-20T17:36:44.986Z,2.60
2022-11-20T17:39:12.460Z,2.70
2022-11-20T17:41:41.098Z,2.60
2022-11-20T17:44:11.758Z,2.60
2022-11-20T17:46:40.657Z,2.60
2022-11-20T17:49:09.162Z,2.60
2022-11-20T17:51:37.726Z,2.60
2022-11-20T17:54:10.319Z,2.60
2022-11-20T17:56:56.275Z,2.60
2022-11-20T17:59:24.786Z,2.60
2022-11-20T18:01:54.505Z,2.70
2022-11-20T18:04:23.577Z,2.60
2022-11-20T18:06:52.363Z,2.60
2022-11-20T18:09:20.850Z,2.70
2022-11-20T18:11:49.348Z,2.70
2022-11-20T18:14:34.749Z,2.70
2022-11-20T18:17:06.677Z,2.70
2022-11-20T18:19:42.681Z,2.70
2022-11-20T18:22:08.786Z,2.70
2022-11-20T18:24:39.199Z,2.70
2022-11-20T18:27:13.006Z,2.70
2022-11-20T18:29:41.860Z,2.70
2022-11-20T18:32:10.431Z,2.80
2022-11-20T18:37:09.137Z,2.70
2022-11-20T18:39:37.814Z,2.70
2022-11-20T18:42:24.103Z,2.70
2022-11-20T18:44:55.644Z,2.70
2022-11-20T18:47:27.806Z,2.70
2022-11-20T18:49:58.288Z,2.80
2022-11-20T18:52:33.589Z,2.80
2022-11-20T18:55:03.771Z,2.80
2022-11-20T18:57:33.359Z,2.80
2022-11-20T19:00:08.477Z,2.80
2022-11-20T19:02:36.600Z,2.80
2022-11-20T19:05:02.698Z,2.80
2022-11-20T19:07:31.583Z,2.80
2022-11-20T19:10:03.672Z,2.80
2022-11-20T19:12:30.249Z,2.80
2022-11-20T19:14:58.810Z,2.90
2022-11-20T19:17:27.264Z,2.80
2022-11-20T19:19:55.875Z,2.80
2022-11-20T19:22:24.351Z,2.80
2022-11-20T19:24:52.878Z,2.90
2022-11-20T19:27:21.561Z,2.90
2022-11-20T19:29:50.225Z,2.90
2022-11-20T19:32:18.849Z,2.90
2022-11-20T19:34:47.321Z,2.90
2022-11-20T19:37:15.821Z,2.90
2022-11-20T19:39:44.357Z,2.90
2022-11-20T19:42:12.907Z,2.90
2022-11-20T19:44:41.411Z,3.00
2022-11-20T19:47:14.265Z,3.00
2022-11-20T19:49:42.910Z,3.00
2022-11-20T19:52:12.253Z,3.00
2022-11-20T19:54:40.812Z,3.00
2022-11-20T19:57:09.516Z,3.00
2022-11-20T19:59:38.184Z,3.00
2022-11-20T20:02:06.867Z,3.00
2022-11-20T20:04:35.469Z,3.00
2022-11-20T20:07:07.234Z,3.00
2022-11-20T20:09:35.778Z,3.00
2022-11-20T20:12:04.365Z,2.90
2022-11-20T20:14:34.644Z,3.00
2022-11-20T20:17:03.334Z,3.00
2022-11-20T20:19:31.875Z,3.00
2022-11-20T20:22:01.692Z,3.00
2022-11-20T20:24:30.313Z,3.00
2022-11-20T20:26:58.830Z,3.00
2022-11-20T20:29:27.372Z,3.00
2022-11-20T20:31:55.818Z,3.00
2022-11-20T20:34:24.376Z,3.00
2022-11-20T20:36:52.861Z,2.90
2022-11-20T20:39:21.588Z,3.00
2022-11-20T20:41:50.245Z,2.90
2022-11-20T20:44:36.514Z,2.90
2022-11-20T20:47:05.165Z,2.90
2022-11-20T20:49:35.075Z,2.90
2022-11-20T20:52:03.725Z,2.90
2022-11-20T20:54:34.475Z,2.90
2022-11-20T20:57:02.713Z,2.90
2022-11-20T20:59:31.246Z,2.80
2022-11-20T21:02:00.041Z,2.90
2022-11-20T21:04:28.617Z,2.90
2022-11-20T21:06:57.296Z,2.90
2022-11-20T21:09:26.012Z,2.90
2022-11-20T21:11:54.621Z,2.90
2022-11-20T21:14:23.316Z,2.90
2022-11-20T21:16:52.443Z,2.90
2022-11-20T21:19:20.967Z,2.90
2022-11-20T21:22:02.960Z,2.90
2022-11-20T21:24:34.146Z,2.80
2022-11-20T21:27:05.483Z,2.90
2022-11-20T21:29:34.039Z,2.80
2022-11-20T21:32:02.963Z,2.90
2022-11-20T21:34:31.525Z,2.80
2022-11-20T21:37:00.040Z,2.80
2022-11-20T21:39:30.290Z,2.80
2022-11-20T21:41:58.753Z,2.80
2022-11-20T21:44:41.698Z,2.80
2022-11-20T21:46:57.557Z,2.80
2022-11-20T21:49:26.458Z,2.70
2022-11-20T21:51:55.256Z,2.70
2022-11-20T21:54:24.118Z,2.70
2022-11-20T21:56:53.034Z,2.70
2022-11-20T21:59:22.051Z,2.70
2022-11-20T22:01:50.812Z,2.70
2022-11-20T22:04:20.063Z,2.70
2022-11-20T22:06:48.997Z,2.70
2022-11-20T22:09:17.483Z,2.80
2022-11-20T22:11:46.000Z,2.70
2022-11-20T22:14:24.216Z,2.60
2022-11-20T22:16:54.558Z,2.70
2022-11-20T22:19:24.458Z,2.70
2022-11-20T22:21:52.901Z,2.60
2022-11-20T22:24:23.497Z,2.70
2022-11-20T22:26:52.690Z,2.60
2022-11-20T22:29:22.265Z,2.60
2022-11-20T22:31:53.035Z,2.60
2022-11-20T22:34:21.823Z,2.40
2022-11-20T22:36:50.674Z,2.40
2022-11-20T22:39:19.177Z,2.40
2022-11-20T22:41:47.646Z,2.40
2022-11-20T22:44:16.573Z,2.40
2022-11-20T22:46:45.189Z,2.40
2022-11-20T22:49:13.733Z,2.50
2022-11-20T22:51:42.679Z,2.50
2022-11-20T22:54:14.408Z,2.50
2022-11-20T22:56:43.221Z,2.50
2022-11-20T22:59:12.402Z,2.50
2022-11-20T23:01:40.899Z,2.50
2022-11-20T23:04:11.683Z,2.50
2022-11-20T23:06:40.299Z,2.40
2022-11-20T23:09:09.757Z,2.40
2022-11-20T23:11:38.297Z,2.50
2022-11-20T23:14:09.658Z,2.40
2022-11-20T23:16:38.223Z,2.40
2022-11-20T23:19:08.826Z,2.30
2022-11-20T23:21:38.836Z,2.20
2022-11-20T23:24:08.015Z,2.20
2022-11-20T23:26:39.152Z,2.20
2022-11-20T23:29:08.404Z,2.10
2022-11-20T23:31:37.313Z,2.10
2022-11-20T23:34:05.852Z,2.10
2022-11-20T23:36:34.302Z,2.10
2022-11-20T23:39:02.791Z,2.00
2022-11-20T23:41:31.336Z,2.00
2022-11-20T23:43:59.883Z,2.00
2022-11-20T23:46:28.349Z,2.00
2022-11-20T23:48:56.877Z,2.00
2022-11-20T23:51:25.426Z,2.00
2022-11-20T23:53:53.994Z,2.00
2022-11-20T23:56:22.557Z,2.00
2022-11-20T23:58:51.093Z,2.00
